Time;durP1;ratioP1;P1;durP2;ratioP2;P2;SDS_P1;SDS_P2;PMS_P1;PMS_P2;Temp;Humidity;BMP_temperature;BMP_pressure;BME280_temperature;BME280_humidity;BME280_pressure;Samples;Min_cycle;Max_cycle;Signal;HPM_P1;HPM_P2
2024/02/16 00:01:55;;;;;;;3.80;3.03;;;11.60;99.90;;;;;;4995025;28;20411;-70
2024/02/16 00:04:21;;;;;;;4.80;3.00;;;11.70;99.90;;;;;;4994825;28;20697;-70
2024/02/16 00:06:48;;;;;;;4.40;3.13;;;11.80;99.90;;;;;;4994813;28;20233;-69
2024/02/16 00:09:14;;;;;;;3.90;3.10;;;11.90;99.90;;;;;;4994442;28;20407;-69
2024/02/16 00:11:40;;;;;;;3.60;3.30;;;11.90;99.90;;;;;;4994681;28;20400;-69
2024/02/16 00:14:05;;;;;;;3.10;2.80;;;11.90;99.90;;;;;;4994724;28;20170;-69
2024/02/16 00:16:31;;;;;;;5.30;3.30;;;11.90;99.90;;;;;;4994709;28;20226;-70
2024/02/16 00:18:56;;;;;;;3.83;3.00;;;11.90;99.90;;;;;;4994836;28;20234;-70
2024/02/16 00:21:22;;;;;;;5.93;3.00;;;11.90;99.90;;;;;;4994819;28;20521;-70
2024/02/16 00:23:47;;;;;;;7.00;2.60;;;12.00;99.90;;;;;;4994910;28;20177;-69
2024/02/16 00:26:13;;;;;;;3.00;2.70;;;12.00;99.90;;;;;;4994765;28;20205;-70
2024/02/16 00:28:39;;;;;;;4.00;3.10;;;11.90;99.90;;;;;;4995520;28;20169;-70
2024/02/16 00:31:05;;;;;;;4.13;3.10;;;11.90;99.90;;;;;;4996031;28;20563;-69
2024/02/16 00:33:31;;;;;;;4.90;2.90;;;12.00;99.90;;;;;;4995044;28;20612;-68
2024/02/16 00:35:57;;;;;;;5.00;3.10;;;12.00;99.90;;;;;;4993129;28;20475;-69
2024/02/16 00:38:23;;;;;;;5.50;2.77;;;12.10;99.90;;;;;;4994407;28;20187;-69
2024/02/16 00:40:49;;;;;;;4.63;3.00;;;12.20;99.90;;;;;;4994210;28;20173;-69
2024/02/16 00:43:15;;;;;;;3.73;3.43;;;12.30;99.90;;;;;;4994203;28;20405;-68
2024/02/16 00:45:44;;;;;;;6.57;3.70;;;12.30;99.90;;;;;;4994234;28;20200;-69
2024/02/16 00:48:09;;;;;;;2.90;2.60;;;12.00;99.90;;;;;;4994304;28;20511;-69
2024/02/16 00:50:35;;;;;;;3.67;3.37;;;12.10;99.90;;;;;;4994105;28;20456;-69
2024/02/16 00:53:01;;;;;;;3.60;3.30;;;12.20;99.90;;;;;;4994006;28;20536;-69
2024/02/16 00:55:26;;;;;;;4.13;2.90;;;12.20;99.90;;;;;;4994235;28;20244;-69
2024/02/16 00:57:52;;;;;;;4.73;3.30;;;12.10;99.90;;;;;;4994024;28;20169;-69
2024/02/16 01:00:19;;;;;;;6.00;3.17;;;12.20;99.90;;;;;;4993801;28;20172;-68
2024/02/16 01:02:45;;;;;;;5.70;3.20;;;12.20;99.90;;;;;;4993936;28;20171;-69
2024/02/16 01:05:10;;;;;;;4.47;3.43;;;12.10;99.90;;;;;;4993982;28;21024;-68
2024/02/16 01:07:36;;;;;;;4.00;3.10;;;12.20;99.90;;;;;;4993942;28;20687;-69
2024/02/16 01:10:03;;;;;;;5.07;3.40;;;12.20;99.90;;;;;;4992529;28;20177;-69
2024/02/16 01:12:30;;;;;;;4.60;2.90;;;12.30;99.90;;;;;;4994098;28;20414;-69
2024/02/16 01:14:56;;;;;;;3.27;2.97;;;12.20;99.90;;;;;;4993748;28;20415;-69
2024/02/16 01:17:22;;;;;;;3.80;2.87;;;12.30;99.90;;;;;;4994123;28;20460;-69
2024/02/16 01:19:47;;;;;;;2.93;2.57;;;12.30;99.90;;;;;;4993637;28;20314;-69
2024/02/16 01:22:13;;;;;;;2.70;2.50;;;12.20;99.90;;;;;;4993601;28;20173;-69
2024/02/16 01:24:39;;;;;;;3.40;2.60;;;12.30;99.90;;;;;;4997085;28;20575;-67
2024/02/16 01:27:05;;;;;;;3.90;2.90;;;12.30;99.90;;;;;;4993663;28;20424;-68
2024/02/16 01:29:32;;;;;;;5.80;3.57;;;12.20;99.90;;;;;;4993617;28;20167;-68
2024/02/16 01:31:58;;;;;;;3.47;3.03;;;12.20;99.90;;;;;;4997649;28;20164;-67
2024/02/16 01:34:24;;;;;;;3.13;2.83;;;12.30;99.90;;;;;;4999434;28;20418;-68
2024/02/16 01:36:49;;;;;;;4.87;3.17;;;12.30;99.90;;;;;;5018298;28;20803;-67
2024/02/16 01:39:15;;;;;;;3.33;2.70;;;12.20;99.90;;;;;;5019722;28;20166;-68
2024/02/16 01:41:40;;;;;;;5.00;2.80;;;12.00;99.90;;;;;;5004168;28;20172;-68
2024/02/16 01:44:06;;;;;;;6.47;3.10;;;12.10;99.90;;;;;;4999939;28;20239;-68
2024/02/16 01:46:33;;;;;;;2.90;2.60;;;12.30;99.90;;;;;;4999933;28;20219;-68
2024/02/16 01:49:00;;;;;;;2.83;2.53;;;12.30;99.90;;;;;;5000272;28;20209;-68
2024/02/16 01:51:25;;;;;;;3.37;2.93;;;12.20;99.90;;;;;;4999967;28;20416;-68
2024/02/16 01:53:52;;;;;;;4.17;2.80;;;12.30;99.90;;;;;;5000024;28;20403;-68
2024/02/16 01:56:20;;;;;;;4.83;3.20;;;12.30;99.90;;;;;;4999776;28;20193;-68
2024/02/16 01:58:47;;;;;;;3.40;3.10;;;12.40;99.90;;;;;;5000111;28;20418;-68
2024/02/16 02:01:12;;;;;;;4.17;3.50;;;12.40;99.90;;;;;;4999831;28;20506;-68
2024/02/16 02:03:38;;;;;;;5.13;2.50;;;12.40;99.90;;;;;;4999878;28;20502;-68
2024/02/16 02:06:03;;;;;;;4.20;2.80;;;12.40;99.90;;;;;;4999678;28;20215;-68
2024/02/16 02:08:29;;;;;;;3.20;2.60;;;12.40;99.90;;;;;;4999691;28;20533;-68
2024/02/16 02:10:54;;;;;;;3.40;2.83;;;12.60;99.90;;;;;;4999314;28;20173;-68
2024/02/16 02:13:21;;;;;;;3.30;2.43;;;12.50;99.90;;;;;;4999677;28;20171;-68
2024/02/16 02:15:47;;;;;;;5.67;2.93;;;12.60;99.90;;;;;;4999533;28;20217;-68
2024/02/16 02:18:14;;;;;;;5.00;3.60;;;12.60;99.90;;;;;;4999544;28;20416;-68
2024/02/16 02:20:39;;;;;;;5.83;3.10;;;12.50;99.90;;;;;;5000015;28;20405;-68
2024/02/16 02:23:05;;;;;;;3.43;2.67;;;12.40;99.90;;;;;;5000051;28;20414;-68
2024/02/16 02:25:31;;;;;;;2.87;2.57;;;12.40;99.90;;;;;;4998190;28;20473;-68
2024/02/16 02:27:56;;;;;;;3.23;2.67;;;12.40;99.90;;;;;;4999893;28;20538;-68
2024/02/16 02:30:22;;;;;;;4.10;2.57;;;12.50;99.90;;;;;;4999687;28;20164;-70
2024/02/16 02:32:50;;;;;;;4.67;3.20;;;12.60;99.90;;;;;;4999885;28;20190;-69
2024/02/16 02:35:17;;;;;;;2.70;2.40;;;12.60;99.90;;;;;;4999411;28;20833;-69
2024/02/16 02:37:43;;;;;;;3.67;3.23;;;12.60;99.90;;;;;;4999481;28;20499;-69
2024/02/16 02:40:09;;;;;;;7.03;2.90;;;12.70;99.90;;;;;;4999067;28;20506;-69
2024/02/16 02:42:35;;;;;;;5.60;3.60;;;12.70;99.90;;;;;;4997469;28;20255;-69
2024/02/16 02:45:02;;;;;;;3.57;2.90;;;12.80;99.90;;;;;;4996336;28;20954;-69
2024/02/16 02:47:27;;;;;;;3.70;2.60;;;12.70;99.90;;;;;;4997039;28;20412;-69
2024/02/16 02:49:53;;;;;;;4.30;3.10;;;12.60;99.90;;;;;;4996286;28;21009;-69
2024/02/16 02:52:19;;;;;;;3.07;2.57;;;12.60;99.90;;;;;;4996186;28;20219;-68
2024/02/16 02:54:45;;;;;;;4.07;3.20;;;12.50;99.90;;;;;;4996353;28;20174;-68
2024/02/16 02:57:10;;;;;;;3.47;3.13;;;12.50;99.90;;;;;;4996325;28;20434;-69
2024/02/16 02:59:36;;;;;;;4.27;3.30;;;12.50;99.90;;;;;;4996201;28;20257;-69
2024/02/16 03:02:01;;;;;;;4.70;3.30;;;12.50;99.90;;;;;;4996067;28;20227;-69
2024/02/16 03:04:27;;;;;;;3.10;2.80;;;12.50;99.90;;;;;;4996000;28;20176;-69
2024/02/16 03:06:53;;;;;;;5.50;3.60;;;12.50;99.90;;;;;;4995982;28;20189;-69
2024/02/16 03:09:18;;;;;;;4.47;2.80;;;12.60;99.90;;;;;;4995916;28;20165;-69
2024/02/16 03:11:44;;;;;;;4.97;3.30;;;12.40;99.90;;;;;;4995852;28;20173;-69
2024/02/16 03:14:09;;;;;;;4.37;3.27;;;12.50;99.90;;;;;;4996181;28;20263;-69
2024/02/16 03:16:35;;;;;;;5.97;3.47;;;12.50;99.90;;;;;;4995681;28;20227;-70
2024/02/16 03:19:01;;;;;;;5.80;3.20;;;12.50;99.90;;;;;;4996087;28;20183;-69
2024/02/16 03:21:27;;;;;;;5.13;3.33;;;12.60;99.90;;;;;;4995691;28;20210;-69
2024/02/16 03:23:52;;;;;;;7.80;3.43;;;12.50;99.90;;;;;;4995622;28;20265;-69
2024/02/16 03:26:20;;;;;;;4.40;3.13;;;12.60;99.90;;;;;;4995535;28;20462;-69
2024/02/16 03:28:49;;;;;;;3.80;2.90;;;12.60;99.90;;;;;;4996038;28;20174;-69
2024/02/16 03:31:23;;;;;;;3.80;3.00;;;12.60;99.90;;;;;;4995908;28;20456;-69
2024/02/16 03:33:51;;;;;;;5.20;3.00;;;12.50;99.90;;;;;;4995801;28;20844;-68
2024/02/16 03:36:17;;;;;;;3.97;3.30;;;12.40;99.90;;;;;;4995465;28;20424;-69
2024/02/16 03:38:46;;;;;;;2.47;2.13;;;12.50;99.90;;;;;;4995901;28;20410;-69
2024/02/16 03:41:19;;;;;;;3.90;3.20;;;12.50;99.90;;;;;;5001388;28;20503;-69
2024/02/16 03:43:44;;;;;;;2.87;2.67;;;12.50;99.90;;;;;;5014995;28;20417;-69
2024/02/16 03:46:10;;;;;;;4.83;3.30;;;12.50;99.90;;;;;;5014879;28;20461;-69
2024/02/16 03:48:36;;;;;;;3.90;2.50;;;12.40;99.90;;;;;;5014839;28;20170;-69
2024/02/16 03:51:03;;;;;;;5.40;2.70;;;12.30;99.90;;;;;;5006837;28;20172;-69
2024/02/16 03:53:28;;;;;;;3.60;3.20;;;12.20;99.90;;;;;;4995017;28;20174;-69
2024/02/16 03:55:54;;;;;;;3.30;2.90;;;12.30;99.90;;;;;;4994715;28;20439;-69
2024/02/16 03:58:20;;;;;;;3.13;2.80;;;12.30;99.90;;;;;;4995290;28;20182;-68
2024/02/16 04:00:45;;;;;;;3.53;2.60;;;12.30;99.90;;;;;;4995074;28;20253;-69
2024/02/16 04:03:11;;;;;;;3.20;2.87;;;12.30;99.90;;;;;;4994947;28;20173;-69
2024/02/16 04:05:39;;;;;;;3.33;2.70;;;12.40;99.90;;;;;;4994927;28;20631;-69
2024/02/16 04:08:06;;;;;;;5.13;2.53;;;12.30;99.90;;;;;;4994866;28;20189;-69
2024/02/16 04:10:32;;;;;;;3.80;2.70;;;12.20;99.90;;;;;;4994832;28;20780;-69
2024/02/16 04:12:58;;;;;;;3.57;2.10;;;12.10;99.90;;;;;;4993706;28;20561;-69
2024/02/16 04:15:24;;;;;;;5.10;2.83;;;12.10;99.90;;;;;;4994281;28;21277;-69
2024/02/16 04:17:49;;;;;;;3.20;2.23;;;12.10;99.90;;;;;;4994714;28;20184;-69
2024/02/16 04:20:19;;;;;;;2.63;2.17;;;12.10;99.90;;;;;;4995256;28;20211;-69
2024/02/16 04:22:45;;;;;;;3.30;2.33;;;12.00;99.90;;;;;;4994699;28;20666;-69
2024/02/16 04:25:10;;;;;;;3.10;2.30;;;12.00;99.90;;;;;;4994442;28;20456;-69
2024/02/16 04:27:36;;;;;;;2.90;1.93;;;12.00;99.90;;;;;;4994406;28;20497;-68
2024/02/16 04:30:06;;;;;;;4.13;1.90;;;12.00;99.90;;;;;;4994463;28;20181;-69
2024/02/16 04:32:32;;;;;;;6.73;1.80;;;12.10;99.90;;;;;;4974868;28;20266;-69
2024/02/16 04:34:58;;;;;;;2.40;2.20;;;12.20;99.90;;;;;;4973477;28;20423;-69
2024/02/16 04:37:27;;;;;;;2.83;2.27;;;12.20;99.90;;;;;;4989496;28;20451;-69
2024/02/16 04:39:52;;;;;;;2.67;2.17;;;12.30;99.90;;;;;;4994258;28;20543;-68
2024/02/16 04:42:18;;;;;;;2.80;2.60;;;12.30;99.90;;;;;;4994163;28;20449;-69
2024/02/16 04:44:44;;;;;;;5.87;3.00;;;12.40;99.90;;;;;;4994269;28;20203;-69
2024/02/16 04:47:09;;;;;;;3.13;2.83;;;12.30;99.90;;;;;;4994153;28;20196;-69
2024/02/16 04:49:36;;;;;;;3.43;2.87;;;12.30;99.90;;;;;;4994135;28;20548;-69
2024/02/16 04:52:02;;;;;;;3.80;3.50;;;12.30;99.90;;;;;;4993992;28;20616;-69
2024/02/16 04:54:28;;;;;;;4.20;3.37;;;12.20;99.90;;;;;;4994239;28;20786;-69
2024/02/16 04:56:54;;;;;;;4.83;3.00;;;12.20;99.90;;;;;;4993940;28;20458;-69
2024/02/16 04:59:20;;;;;;;4.23;2.90;;;12.20;99.90;;;;;;4994186;28;20458;-69
2024/02/16 05:01:46;;;;;;;3.70;3.30;;;12.20;99.90;;;;;;4993907;28;20179;-69
2024/02/16 05:04:13;;;;;;;7.40;3.50;;;12.30;99.90;;;;;;4994033;28;20176;-69
2024/02/16 05:06:42;;;;;;;4.73;3.63;;;12.30;99.90;;;;;;4993389;28;20849;-69
2024/02/16 05:09:08;;;;;;;3.43;3.13;;;12.30;99.90;;;;;;4993856;28;20405;-69
2024/02/16 05:11:33;;;;;;;3.53;3.23;;;12.20;99.90;;;;;;4993627;28;20474;-69
2024/02/16 05:13:59;;;;;;;6.33;4.00;;;12.20;99.90;;;;;;4993675;28;20172;-69
2024/02/16 05:16:26;;;;;;;4.50;3.97;;;12.30;99.90;;;;;;4994084;28;20203;-69
2024/02/16 05:18:52;;;;;;;6.83;3.40;;;12.40;99.90;;;;;;4993824;28;20449;-69
2024/02/16 05:21:18;;;;;;;4.00;3.37;;;12.40;99.90;;;;;;4993679;28;20417;-69
2024/02/16 05:23:44;;;;;;;7.40;3.70;;;12.30;99.90;;;;;;4993773;28;20782;-70
2024/02/16 05:26:10;;;;;;;2.80;2.53;;;12.30;99.90;;;;;;4993478;28;20475;-70
2024/02/16 05:28:36;;;;;;;3.77;3.33;;;12.30;99.90;;;;;;4993556;28;20167;-69
2024/02/16 05:31:18;;;;;;;5.53;3.37;;;12.30;99.90;;;;;;4993596;28;20414;-69
2024/02/16 05:33:47;;;;;;;7.93;3.67;;;12.20;99.90;;;;;;5009244;28;20977;-69
2024/02/16 05:36:12;;;;;;;4.00;3.60;;;12.30;99.90;;;;;;5013622;28;20415;-70
2024/02/16 05:38:43;;;;;;;4.33;3.93;;;12.30;99.90;;;;;;5006983;28;20535;-70
2024/02/16 05:41:08;;;;;;;3.80;3.40;;;12.00;99.90;;;;;;4993880;28;20159;-70
2024/02/16 05:43:34;;;;;;;4.40;4.00;;;12.00;99.90;;;;;;4993506;28;20414;-69
2024/02/16 05:46:00;;;;;;;5.50;3.90;;;12.00;99.90;;;;;;4993383;28;20206;-70
2024/02/16 05:48:29;;;;;;;8.00;4.00;;;12.10;99.90;;;;;;4993587;28;20238;-69
2024/02/16 05:50:59;;;;;;;5.50;4.23;;;12.10;99.90;;;;;;4993659;28;20171;-69
2024/02/16 05:53:25;;;;;;;4.77;4.27;;;12.10;99.90;;;;;;4993625;28;20894;-70
2024/02/16 05:55:51;;;;;;;5.13;3.80;;;12.00;99.90;;;;;;4993604;28;20429;-69
2024/02/16 05:58:17;;;;;;;6.53;4.70;;;11.90;99.90;;;;;;4993763;28;20403;-70
2024/02/16 06:00:43;;;;;;;4.40;3.90;;;11.90;99.90;;;;;;4993443;28;20253;-69
2024/02/16 06:03:08;;;;;;;5.00;4.20;;;11.90;99.90;;;;;;4993988;28;20500;-70
2024/02/16 06:05:34;;;;;;;3.80;3.50;;;11.80;99.90;;;;;;4993452;28;20232;-69
2024/02/16 06:08:00;;;;;;;4.97;3.73;;;11.80;99.90;;;;;;4992336;28;20165;-70
2024/02/16 06:10:26;;;;;;;10.60;5.37;;;11.80;99.90;;;;;;4993369;28;20649;-70
2024/02/16 06:12:52;;;;;;;6.90;4.90;;;11.90;99.90;;;;;;4993286;28;20411;-69
2024/02/16 06:15:17;;;;;;;6.77;4.90;;;11.90;99.90;;;;;;4993293;28;20267;-70
2024/02/16 06:17:43;;;;;;;5.23;3.87;;;12.00;99.90;;;;;;4995207;28;20155;-69
2024/02/16 06:20:10;;;;;;;4.40;3.90;;;11.90;99.90;;;;;;4997428;28;20188;-69
2024/02/16 06:22:36;;;;;;;5.70;4.93;;;12.00;99.90;;;;;;4996965;28;20541;-69
2024/02/16 06:25:02;;;;;;;4.30;3.90;;;12.00;99.90;;;;;;4996808;28;20448;-70
2024/02/16 06:27:28;;;;;;;6.23;4.10;;;12.10;99.90;;;;;;4997248;28;20438;-70
2024/02/16 06:29:53;;;;;;;5.80;5.30;;;12.00;99.90;;;;;;4997034;28;20172;-70
2024/02/16 06:32:19;;;;;;;4.30;3.90;;;12.00;99.90;;;;;;4996895;28;20169;-70
2024/02/16 06:34:45;;;;;;;5.40;3.97;;;12.00;99.90;;;;;;4996987;28;20579;-69
2024/02/16 06:37:11;;;;;;;4.80;4.10;;;11.80;99.90;;;;;;4996527;28;20190;-70
2024/02/16 06:39:37;;;;;;;4.40;4.00;;;11.90;99.90;;;;;;4989937;28;20426;-70
2024/02/16 06:42:02;;;;;;;4.70;3.80;;;11.80;99.90;;;;;;4986939;28;21256;-69
2024/02/16 06:44:29;;;;;;;4.10;3.63;;;11.90;99.90;;;;;;4988010;28;20183;-70
2024/02/16 06:46:54;;;;;;;6.90;4.40;;;11.90;99.90;;;;;;4988380;28;20204;-72
2024/02/16 06:49:20;;;;;;;4.87;3.47;;;11.90;99.90;;;;;;4987784;28;20798;-70
2024/02/16 06:51:45;;;;;;;4.50;4.10;;;11.80;99.90;;;;;;4986810;28;20189;-69
2024/02/16 06:54:11;;;;;;;5.43;4.30;;;11.80;99.90;;;;;;4986869;28;20197;-68
2024/02/16 06:56:37;;;;;;;6.60;5.17;;;11.80;99.90;;;;;;4987023;28;20197;-70
2024/02/16 06:59:03;;;;;;;4.27;3.80;;;11.70;99.90;;;;;;4986699;28;20195;-67
2024/02/16 07:01:28;;;;;;;4.03;3.50;;;11.70;99.90;;;;;;4991544;28;20444;-69
2024/02/16 07:03:54;;;;;;;4.20;3.40;;;11.70;99.90;;;;;;4996445;28;20276;-69
2024/02/16 07:06:20;;;;;;;3.90;3.37;;;11.70;99.90;;;;;;4996105;28;20285;-69
2024/02/16 07:08:45;;;;;;;3.57;3.27;;;11.60;99.90;;;;;;4996324;28;20193;-69
2024/02/16 07:11:11;;;;;;;4.33;3.93;;;11.50;99.90;;;;;;4996293;28;20213;-69
2024/02/16 07:13:38;;;;;;;4.00;3.20;;;11.60;99.90;;;;;;4995982;28;20220;-69
2024/02/16 07:16:06;;;;;;;4.70;3.80;;;11.70;99.90;;;;;;4995951;28;20240;-69
2024/02/16 07:18:34;;;;;;;4.50;3.70;;;11.70;99.90;;;;;;4996515;28;20546;-69
2024/02/16 07:21:00;;;;;;;6.90;3.60;;;11.70;99.90;;;;;;4995666;28;20446;-69
2024/02/16 07:23:26;;;;;;;3.93;3.60;;;11.70;99.90;;;;;;4995911;28;20422;-69
2024/02/16 07:25:56;;;;;;;4.10;3.20;;;11.70;99.90;;;;;;4995600;28;20279;-69
2024/02/16 07:28:22;;;;;;;4.77;3.20;;;11.80;99.90;;;;;;4995687;28;20475;-68
2024/02/16 07:30:47;;;;;;;3.30;3.00;;;11.80;99.90;;;;;;4995409;28;20900;-68
2024/02/16 07:33:13;;;;;;;5.60;3.80;;;11.80;99.90;;;;;;4995763;28;20414;-69
2024/02/16 07:35:39;;;;;;;4.03;3.40;;;11.90;99.90;;;;;;4995660;28;20201;-68
2024/02/16 07:38:05;;;;;;;4.27;3.57;;;11.90;99.90;;;;;;4995428;28;20179;-69
2024/02/16 07:40:31;;;;;;;4.20;3.50;;;11.90;99.90;;;;;;5006450;28;20184;-69
2024/02/16 07:42:57;;;;;;;10.73;4.07;;;11.90;99.90;;;;;;4995649;28;20478;-69
2024/02/16 07:45:23;;;;;;;4.83;4.10;;;11.70;99.90;;;;;;4994119;28;20459;-69
2024/02/16 07:47:48;;;;;;;4.23;3.27;;;11.50;99.90;;;;;;4995456;28;20475;-69
2024/02/16 07:50:19;;;;;;;6.20;4.17;;;11.50;99.90;;;;;;4995791;28;20261;-69
2024/02/16 07:52:44;;;;;;;6.40;3.73;;;11.50;99.90;;;;;;4995363;28;20684;-68
2024/02/16 07:55:10;;;;;;;6.80;4.00;;;11.30;99.90;;;;;;4995408;28;20439;-68
2024/02/16 07:57:36;;;;;;;4.53;3.87;;;11.40;99.90;;;;;;4995484;28;20172;-68
2024/02/16 08:00:03;;;;;;;4.50;3.33;;;11.40;99.90;;;;;;4994114;28;20419;-68
2024/02/16 08:02:29;;;;;;;6.17;3.60;;;11.50;99.90;;;;;;4995388;28;20254;-68
2024/02/16 08:04:54;;;;;;;5.10;4.07;;;11.60;99.90;;;;;;4995492;28;20529;-69
2024/02/16 08:07:20;;;;;;;4.50;4.07;;;11.80;99.90;;;;;;4995305;28;20256;-69
2024/02/16 08:09:46;;;;;;;5.20;3.93;;;11.70;99.90;;;;;;4995277;28;20180;-68
2024/02/16 08:12:15;;;;;;;5.30;4.30;;;11.80;99.90;;;;;;4994888;28;20182;-68
2024/02/16 08:14:42;;;;;;;4.80;3.37;;;11.90;99.90;;;;;;4994845;28;20417;-71
2024/02/16 08:17:07;;;;;;;5.03;3.20;;;12.00;99.90;;;;;;4994745;28;20445;-69
2024/02/16 08:19:37;;;;;;;3.60;3.07;;;12.10;99.90;;;;;;4995070;28;20427;-69
2024/02/16 08:22:04;;;;;;;5.33;3.47;;;12.10;99.90;;;;;;4994621;28;20174;-68
2024/02/16 08:24:32;;;;;;;5.07;3.63;;;12.30;99.90;;;;;;4994582;28;20411;-70
2024/02/16 08:26:58;;;;;;;4.43;3.53;;;12.40;99.90;;;;;;4994266;28;20927;-69
2024/02/16 08:29:25;;;;;;;6.23;5.17;;;12.60;99.90;;;;;;4994474;28;20405;-69
2024/02/16 08:31:51;;;;;;;5.10;4.60;;;12.60;99.90;;;;;;4994079;28;20172;-69
2024/02/16 08:34:16;;;;;;;6.47;5.70;;;12.50;99.90;;;;;;4994532;28;20396;-71
2024/02/16 08:36:49;;;;;;;8.20;6.60;;;12.50;99.90;;;;;;4993151;28;20216;-69
2024/02/16 08:39:16;;;;;;;7.90;7.10;;;12.60;99.90;;;;;;4994063;28;20179;-68
2024/02/16 08:41:44;;;;;;;11.60;6.87;;;12.50;99.90;;;;;;4993009;28;20446;-69
2024/02/16 08:44:10;;;;;;;7.13;6.40;;;12.50;99.90;;;;;;4994384;28;20393;-67
2024/02/16 08:46:36;;;;;;;10.40;7.77;;;12.50;99.90;;;;;;4994469;28;20828;-69
2024/02/16 08:49:02;;;;;;;7.37;6.67;;;12.70;99.90;;;;;;4994226;28;20736;-69
2024/02/16 08:51:28;;;;;;;10.23;7.30;;;13.00;99.90;;;;;;4994081;28;20405;-69
2024/02/16 08:53:54;;;;;;;8.13;5.67;;;13.00;99.90;;;;;;4994096;28;20407;-69
2024/02/16 08:56:20;;;;;;;6.30;5.50;;;13.20;99.90;;;;;;4994133;28;20206;-69
2024/02/16 08:58:45;;;;;;;9.23;5.57;;;13.40;99.90;;;;;;4994062;28;20259;-69
2024/02/16 09:01:11;;;;;;;6.37;5.33;;;13.40;99.90;;;;;;4994133;28;20178;-69
2024/02/16 09:03:39;;;;;;;7.33;4.90;;;13.40;99.90;;;;;;4994456;28;20182;-69
2024/02/16 09:06:05;;;;;;;6.30;4.97;;;13.50;99.90;;;;;;4993750;28;20679;-69
2024/02/16 09:08:33;;;;;;;7.50;4.80;;;13.60;99.90;;;;;;4993898;28;20433;-69
2024/02/16 09:11:05;;;;;;;7.53;5.27;;;13.70;99.90;;;;;;4994051;28;20190;-68
2024/02/16 09:13:40;;;;;;;5.60;4.40;;;13.70;99.90;;;;;;4993852;28;20439;-68
2024/02/16 09:16:05;;;;;;;8.63;4.73;;;13.90;99.90;;;;;;4992322;28;20455;-68
2024/02/16 09:18:31;;;;;;;5.90;4.97;;;14.10;99.90;;;;;;4993740;28;20418;-69
2024/02/16 09:20:57;;;;;;;4.93;4.53;;;14.30;99.90;;;;;;4993760;28;20414;-70
2024/02/16 09:23:23;;;;;;;5.67;5.10;;;14.40;99.90;;;;;;4992276;28;20833;-70
2024/02/16 09:25:49;;;;;;;6.30;5.27;;;14.60;99.90;;;;;;4994116;28;20212;-69
2024/02/16 09:28:14;;;;;;;5.53;5.03;;;14.90;99.90;;;;;;4994447;28;20172;-69
2024/02/16 09:30:40;;;;;;;5.60;4.80;;;15.30;99.90;;;;;;4993823;28;20407;-70
2024/02/16 09:33:07;;;;;;;9.93;4.40;;;15.50;99.90;;;;;;4994045;28;20520;-69
2024/02/16 09:35:32;;;;;;;8.67;4.93;;;15.70;99.90;;;;;;4994075;28;20702;-68
2024/02/16 09:37:58;;;;;;;6.80;5.10;;;15.60;99.90;;;;;;4993696;28;20423;-69
2024/02/16 09:40:23;;;;;;;7.80;5.10;;;15.50;99.90;;;;;;4993424;28;20179;-69
2024/02/16 09:42:49;;;;;;;10.50;5.40;;;15.40;99.90;;;;;;4993576;28;20230;-70
2024/02/16 09:45:15;;;;;;;5.77;5.07;;;15.60;99.90;;;;;;5008764;28;20204;-69
2024/02/16 09:47:47;;;;;;;7.37;5.03;;;15.50;99.90;;;;;;5012944;28;20627;-68
2024/02/16 09:50:13;;;;;;;7.00;5.50;;;;;;;;;;5013095;28;20454;-69
2024/02/16 09:52:41;;;;;;;9.20;5.50;;;;;;;;;;5001876;28;20769;-69
2024/02/16 09:55:10;;;;;;;7.60;5.77;;;;;;;;;;5001609;28;20411;-70
2024/02/16 09:57:36;;;;;;;5.37;4.30;;;;;;;;;;5000313;28;20458;-70
2024/02/16 10:00:06;;;;;;;6.20;4.90;;;;;;;;;;4996204;28;20424;-69
2024/02/16 10:02:44;;;;;;;6.80;5.40;;;;;;;;;;4996927;28;20404;-69
2024/02/16 10:05:15;;;;;;;6.87;4.80;;;;;;;;;;4997019;28;20536;-69
2024/02/16 10:07:41;;;;;;;7.13;4.13;;;;;;;;;;4997370;28;20412;-69
2024/02/16 10:10:21;;;;;;;5.03;4.10;;;;;;;;;;4996866;28;20396;-69
2024/02/16 10:12:48;;;;;;;5.20;4.47;;;;;;;;;;4997052;28;20388;-68
2024/02/16 10:15:19;;;;;;;5.17;4.20;;;;;;;;;;4997034;28;20982;-69
2024/02/16 10:17:46;;;;;;;6.57;5.13;;;;;;;;;;4996119;28;20512;-69
2024/02/16 10:20:18;;;;;;;5.53;4.30;;;;;;;;;;4997105;28;20775;-69
2024/02/16 10:22:44;;;;;;;7.40;4.60;;;17.20;99.90;;;;;;4996244;28;20929;-68
2024/02/16 10:25:12;;;;;;;5.07;4.37;;;17.40;99.90;;;;;;4997059;28;20220;-68
2024/02/16 10:27:38;;;;;;;6.40;4.73;;;17.40;99.90;;;;;;4997503;28;20220;-70
2024/02/16 10:30:09;;;;;;;5.30;4.63;;;17.40;99.90;;;;;;4997230;28;20407;-70
2024/02/16 10:32:38;;;;;;;4.93;3.93;;;18.00;99.90;;;;;;4996625;28;20235;-70
2024/02/16 10:35:06;;;;;;;4.50;3.70;;;18.60;99.90;;;;;;4995130;28;20416;-70
2024/02/16 10:37:32;;;;;;;5.53;4.03;;;18.80;99.90;;;;;;4996979;28;20422;-69
2024/02/16 10:40:00;;;;;;;4.87;3.13;;;18.70;99.90;;;;;;4996427;28;20447;-69
2024/02/16 10:42:27;;;;;;;4.20;3.67;;;19.00;99.90;;;;;;4995429;28;20424;-70
2024/02/16 10:44:53;;;;;;;7.70;4.50;;;19.20;99.90;;;;;;4996783;28;20475;-69
2024/02/16 10:47:19;;;;;;;6.20;3.37;;;18.80;99.90;;;;;;4996579;28;20408;-70
2024/02/16 10:49:45;;;;;;;6.83;3.67;;;18.80;99.90;;;;;;4996265;28;20412;-70
2024/02/16 10:52:12;;;;;;;5.27;3.90;;;18.60;99.90;;;;;;4996350;28;20256;-70
2024/02/16 10:54:39;;;;;;;4.70;3.20;;;18.90;99.90;;;;;;4996369;28;20223;-70
2024/02/16 10:57:09;;;;;;;4.37;2.83;;;19.10;99.90;;;;;;4996588;28;20420;-68
2024/02/16 10:59:45;;;;;;;3.97;2.57;;;19.00;99.90;;;;;;4996705;28;20383;-70
2024/02/16 11:02:11;;;;;;;5.40;2.40;;;19.10;99.90;;;;;;4997043;28;20953;-70
2024/02/16 11:04:41;;;;;;;3.70;2.13;;;19.00;99.90;;;;;;4993869;28;20490;-70
2024/02/16 11:07:16;;;;;;;2.37;1.80;;;19.30;99.50;;;;;;4996469;28;20428;-70
2024/02/16 11:09:43;;;;;;;4.47;2.17;;;19.50;99.70;;;;;;4996163;28;20510;-70
2024/02/16 11:12:13;;;;;;;2.83;1.80;;;19.60;99.40;;;;;;4996285;28;20478;-70
2024/02/16 11:14:45;;;;;;;3.87;2.37;;;19.40;98.80;;;;;;4994937;28;20422;-70
2024/02/16 11:17:21;;;;;;;3.97;2.20;;;19.10;98.70;;;;;;5018717;23;21008;-70
2024/02/16 11:19:48;;;;;;;4.93;2.37;;;19.10;98.80;;;;;;4995852;28;20396;-70
2024/02/16 11:22:18;;;;;;;2.63;2.33;;;18.80;99.00;;;;;;4995938;28;20739;-71
2024/02/16 11:24:45;;;;;;;3.10;1.73;;;18.80;99.00;;;;;;4995650;28;20510;-69
2024/02/16 11:27:12;;;;;;;3.10;2.60;;;18.90;99.20;;;;;;4995398;28;20428;-69
2024/02/16 11:29:39;;;;;;;4.47;2.00;;;19.10;99.30;;;;;;4995578;28;20403;-69
2024/02/16 11:32:06;;;;;;;2.80;2.00;;;19.20;99.20;;;;;;4995559;28;20482;-69
2024/02/16 11:34:33;;;;;;;3.50;2.33;;;19.20;99.30;;;;;;4995540;28;20874;-68
2024/02/16 11:37:00;;;;;;;7.60;3.33;;;19.00;99.00;;;;;;4995522;28;20443;-69
2024/02/16 11:39:26;;;;;;;4.97;3.30;;;18.70;99.50;;;;;;4995684;28;20408;-70
2024/02/16 11:42:06;;;;;;;5.80;3.67;;;18.80;99.80;;;;;;4992796;28;20412;-69
2024/02/16 11:44:33;;;;;;;4.73;2.43;;;19.20;99.60;;;;;;4995947;28;20844;-70
2024/02/16 11:46:59;;;;;;;4.10;3.00;;;19.30;99.10;;;;;;4995440;28;20494;-69
2024/02/16 11:49:26;;;;;;;6.10;3.83;;;19.20;98.80;;;;;;4995246;28;20418;-70
2024/02/16 11:51:52;;;;;;;6.37;3.60;;;19.50;98.60;;;;;;4994445;28;20426;-69
2024/02/16 11:54:17;;;;;;;5.53;3.20;;;20.20;97.80;;;;;;4995430;28;20420;-69
2024/02/16 11:56:50;;;;;;;6.43;4.03;;;20.60;97.40;;;;;;4995093;28;20204;-69
2024/02/16 11:59:17;;;;;;;3.43;2.50;;;22.00;96.80;;;;;;4995227;28;20760;-69
2024/02/16 12:02:16;;;;;;;3.87;2.20;;;22.20;95.00;;;;;;4995314;28;20419;-69
2024/02/16 12:04:42;;;;;;;4.83;2.60;;;22.70;93.60;;;;;;4995201;28;20400;-69
2024/02/16 12:07:07;;;;;;;4.83;2.40;;;23.40;93.00;;;;;;4994739;28;20436;-69
2024/02/16 12:09:34;;;;;;;5.80;2.40;;;23.20;92.10;;;;;;4994813;28;20165;-70
2024/02/16 12:12:00;;;;;;;3.53;2.03;;;23.30;92.30;;;;;;4974736;28;20422;-72
2024/02/16 12:14:25;;;;;;;2.70;1.90;;;22.70;92.10;;;;;;4975416;28;20455;-71
2024/02/16 12:16:58;;;;;;;3.43;1.87;;;22.50;92.60;;;;;;4974200;28;20271;-71
2024/02/16 12:19:24;;;;;;;3.13;2.70;;;22.30;92.70;;;;;;4973319;28;20173;-70
2024/02/16 12:21:52;;;;;;;6.10;3.30;;;22.20;92.90;;;;;;4990631;28;20482;-73
2024/02/16 12:24:18;;;;;;;3.30;2.07;;;22.80;93.00;;;;;;4994542;28;20416;-72
2024/02/16 12:26:44;;;;;;;2.60;1.80;;;22.60;92.70;;;;;;4994049;28;20993;-71
2024/02/16 12:29:12;;;;;;;5.13;2.33;;;22.50;92.40;;;;;;4993937;28;20416;-70
2024/02/16 12:31:40;;;;;;;4.90;2.33;;;22.60;92.20;;;;;;4979870;28;20173;-72
2024/02/16 12:34:07;;;;;;;3.50;2.23;;;22.20;93.10;;;;;;4975300;28;20785;-71
2024/02/16 12:36:34;;;;;;;6.53;3.30;;;22.10;93.00;;;;;;4975281;28;20460;-71
2024/02/16 12:39:00;;;;;;;5.27;2.77;;;22.10;93.10;;;;;;4973780;28;20487;-71
2024/02/16 12:41:25;;;;;;;5.00;2.40;;;21.50;93.70;;;;;;4972906;28;20515;-73
2024/02/16 12:43:51;;;;;;;5.63;2.90;;;20.90;94.00;;;;;;4974465;28;20573;-74
2024/02/16 12:46:17;;;;;;;3.63;2.53;;;20.60;94.80;;;;;;4974183;28;20243;-74
2024/02/16 12:48:42;;;;;;;5.93;2.50;;;20.70;95.20;;;;;;4974163;28;20176;-74